Decoded Metar for KEHO (SHELBY MUNI in NC, USA) (IATA:EHO) | Meteo·Mobile Aviation Weather
aviador You're here:

KEHO Decoded Metar

SHELBY MUNI in NC, USA
Report Time2019-04-25 01:00:00
UTC Time2019-04-25 01:13:00
Flight Rules vfr VFR
Wind200° at 05 kt
W.Decomp.*RWY 23: 4.6 kt HW 2 kt LCW
Visibility9999 m
Phenomena:N/A
Clouds:N/A
Expected CloudBase > 5,200 ft AGL from Temp-Dew spread
CeilingNone
Temp24°C (ISA +11)
Dew Point11°C (44% RH)
AAT22.5°C
QNH1012 hPa
Density Alt2,297 ft
Elevation846 ft
Report Wrong Elevation
Raw Report
METAR KEHO 250100Z AUTO 20005KT 10SM CLR 24/11 A2989 RMK AO2 T02400105=

Extra information for KEHO:More info

Metar Taf Metar & Taf Last 4 Metars F.Rules Stats Wind Profile Meteogram Temp Stats Airport Information Weather charts Add Link Nearby VenuesMetar ALERT Operation Metar Decoded Social comments

AIRNAV info for KEHO